createdAt,value
2017-05-08T00:00:16.996Z,100515
2017-05-08T00:01:17.212Z,100518
2017-05-08T00:02:17.504Z,100510
2017-05-08T00:03:17.575Z,100518
2017-05-08T00:04:17.591Z,100521
2017-05-08T00:05:17.188Z,100515
2017-05-08T00:06:17.255Z,100515
2017-05-08T00:07:18.071Z,100518
2017-05-08T00:08:17.873Z,100520
2017-05-08T00:09:17.417Z,100522
2017-05-08T00:10:17.420Z,100521
2017-05-08T00:11:17.521Z,100524
2017-05-08T00:12:17.600Z,100522
2017-05-08T00:13:17.876Z,100520
2017-05-08T00:14:18.181Z,100521
2017-05-08T00:15:18.302Z,100521
2017-05-08T00:16:17.783Z,100515
2017-05-08T00:17:17.904Z,100521
2017-05-08T00:18:17.995Z,100523
2017-05-08T00:19:18.848Z,100513
2017-05-08T00:20:18.007Z,100522
2017-05-08T00:21:18.671Z,100512
2017-05-08T00:22:18.152Z,100517
2017-05-08T00:23:18.720Z,100522
2017-05-08T00:24:18.243Z,100517
2017-05-08T00:25:18.578Z,100510
2017-05-08T00:26:18.337Z,100520
2017-05-08T00:27:18.326Z,100520
2017-05-08T00:28:18.955Z,100519
2017-05-08T00:29:19.009Z,100520
2017-05-08T00:30:19.041Z,100521
2017-05-08T00:31:18.850Z,100522
2017-05-08T00:32:18.581Z,100513
2017-05-08T00:33:19.124Z,100519
2017-05-08T00:34:18.638Z,100521
2017-05-08T00:35:19.224Z,100521
2017-05-08T00:36:18.694Z,100522
2017-05-08T00:37:19.035Z,100522
2017-05-08T00:38:18.809Z,100523
2017-05-08T00:39:19.482Z,100522
2017-05-08T00:40:18.996Z,100524
2017-05-08T00:41:19.022Z,100524
2017-05-08T00:42:19.094Z,100522
2017-05-08T00:43:19.451Z,100525
2017-05-08T00:44:19.153Z,100523
2017-05-08T00:45:19.806Z,100524
2017-05-08T00:46:19.784Z,100528
2017-05-08T00:47:19.855Z,100524
2017-05-08T00:48:19.921Z,100525
2017-05-08T00:49:19.694Z,100523
2017-05-08T00:50:19.507Z,100526
2017-05-08T00:51:19.569Z,100530
2017-05-08T00:52:19.654Z,100526
2017-05-08T00:53:20.273Z,100528
2017-05-08T00:54:20.279Z,100521
2017-05-08T00:55:20.187Z,100532
2017-05-08T00:56:20.465Z,100526
2017-05-08T00:57:19.998Z,100521
2017-05-08T00:58:20.090Z,100526
2017-05-08T00:59:20.703Z,100524
2017-05-08T01:00:20.665Z,100524
2017-05-08T01:01:20.483Z,100522
2017-05-08T01:02:20.216Z,100526
2017-05-08T01:03:20.330Z,100526
2017-05-08T01:04:20.374Z,100523
2017-05-08T01:05:20.375Z,100522
2017-05-08T01:06:20.414Z,100523
2017-05-08T01:07:20.687Z,100524
2017-05-08T01:08:20.494Z,100521
2017-05-08T01:09:20.502Z,100524
2017-05-08T01:10:20.528Z,100526
2017-05-08T01:11:21.158Z,100525
2017-05-08T01:12:21.217Z,100527
2017-05-08T01:13:20.994Z,100526
2017-05-08T01:14:20.856Z,100527
2017-05-08T01:15:20.852Z,100528
2017-05-08T01:16:20.980Z,100527
2017-05-08T01:17:21.547Z,100529
2017-05-08T01:18:21.064Z,100528
2017-05-08T01:19:21.359Z,100531
2017-05-08T01:20:21.202Z,100529
2017-05-08T01:21:21.252Z,100526
2017-05-08T01:22:21.828Z,100524
2017-05-08T01:23:21.370Z,100528
2017-05-08T01:24:21.380Z,100525
2017-05-08T01:25:21.811Z,100529
2017-05-08T01:26:21.535Z,100528
2017-05-08T01:27:22.119Z,100528
2017-05-08T01:28:21.586Z,100530
2017-05-08T01:29:21.570Z,100531
2017-05-08T01:30:21.617Z,100530
2017-05-08T01:31:22.505Z,100530
2017-05-08T01:32:22.310Z,100522
2017-05-08T01:33:22.367Z,100529
2017-05-08T01:34:21.861Z,100534
2017-05-08T01:35:22.408Z,100530
2017-05-08T01:36:21.892Z,100528
2017-05-08T01:37:22.292Z,100531
2017-05-08T01:38:22.610Z,100526
2017-05-08T01:39:22.055Z,100528
2017-05-08T01:40:22.722Z,100529
2017-05-08T01:41:22.170Z,100527
2017-05-08T01:42:22.738Z,100526
2017-05-08T01:43:22.619Z,100529
2017-05-08T01:44:22.354Z,100524
2017-05-08T01:45:22.892Z,100529
2017-05-08T01:46:22.972Z,100526
2017-05-08T01:47:23.036Z,100526
2017-05-08T01:48:23.163Z,100526
2017-05-08T01:49:22.969Z,100524
2017-05-08T01:50:23.294Z,100521
2017-05-08T01:51:22.751Z,100519
2017-05-08T01:52:23.429Z,100524
2017-05-08T01:53:23.465Z,100525
2017-05-08T01:54:23.558Z,100525
2017-05-08T01:55:23.366Z,100523
2017-05-08T01:56:23.157Z,100516
2017-05-08T01:57:23.164Z,100524
2017-05-08T01:58:23.827Z,100518
2017-05-08T01:59:23.314Z,100527
2017-05-08T02:00:23.948Z,100529
2017-05-08T02:01:23.693Z,100522
2017-05-08T02:02:23.968Z,100521
2017-05-08T02:03:23.530Z,100524
2017-05-08T02:04:24.021Z,100520
2017-05-08T02:05:24.113Z,100520
2017-05-08T02:06:24.143Z,100522
2017-05-08T02:07:24.487Z,100519
2017-05-08T02:08:24.323Z,100514
2017-05-08T02:09:23.762Z,100522
2017-05-08T02:10:24.425Z,100523
2017-05-08T02:11:23.858Z,100520
2017-05-08T02:12:24.498Z,100517
2017-05-08T02:13:24.265Z,100520
2017-05-08T02:14:24.055Z,100519
2017-05-08T02:15:24.104Z,100511
2017-05-08T02:16:24.647Z,100518
2017-05-08T02:17:24.739Z,100512
2017-05-08T02:18:24.742Z,100519
2017-05-08T02:19:24.988Z,100511
2017-05-08T02:20:24.324Z,100520
2017-05-08T02:21:24.890Z,100520
2017-05-08T02:22:24.432Z,100518
2017-05-08T02:23:24.448Z,100517
2017-05-08T02:24:25.135Z,100518
2017-05-08T02:25:24.858Z,100517
2017-05-08T02:26:25.166Z,100523
2017-05-08T02:27:25.217Z,100513
2017-05-08T02:28:24.676Z,100520
2017-05-08T02:29:25.271Z,100519
2017-05-08T02:30:25.290Z,100520
2017-05-08T02:31:25.637Z,100520
2017-05-08T02:32:25.328Z,100525
2017-05-08T02:33:25.435Z,100522
2017-05-08T02:34:25.415Z,100518
2017-05-08T02:35:25.501Z,100513
2017-05-08T02:36:25.571Z,100519
2017-05-08T02:37:25.447Z,100517
2017-05-08T02:38:25.625Z,100518
2017-05-08T02:39:25.112Z,100523
2017-05-08T02:40:25.183Z,100521
2017-05-08T02:41:25.747Z,100523
2017-05-08T02:42:25.810Z,100510
2017-05-08T02:43:25.614Z,100519
2017-05-08T02:44:25.870Z,100518
2017-05-08T02:45:25.904Z,100521
2017-05-08T02:46:25.960Z,100520
2017-05-08T02:47:25.380Z,100521
2017-05-08T02:48:26.052Z,100520
2017-05-08T02:49:26.345Z,100518
2017-05-08T02:50:25.636Z,100523
2017-05-08T02:51:25.624Z,100523
2017-05-08T02:52:25.696Z,100526
2017-05-08T02:53:26.241Z,100522
2017-05-08T02:54:26.283Z,100523
2017-05-08T02:55:26.587Z,100525
2017-05-08T02:56:26.403Z,100513
2017-05-08T02:57:26.447Z,100520
2017-05-08T02:58:26.503Z,100520
2017-05-08T02:59:26.496Z,100515
2017-05-08T03:00:26.037Z,100524
2017-05-08T03:01:27.072Z,100522
2017-05-08T03:02:26.129Z,100522
2017-05-08T03:03:26.807Z,100522
2017-05-08T03:04:26.870Z,100521
2017-05-08T03:05:26.366Z,100518
2017-05-08T03:06:26.437Z,100521
2017-05-08T03:07:26.737Z,100517
2017-05-08T03:08:27.038Z,100519
2017-05-08T03:09:27.106Z,100521
2017-05-08T03:10:26.567Z,100520
2017-05-08T03:11:26.716Z,100523
2017-05-08T03:12:27.276Z,100518
2017-05-08T03:13:27.624Z,100520
2017-05-08T03:14:26.802Z,100522
2017-05-08T03:15:26.912Z,100520
2017-05-08T03:16:26.953Z,100524
2017-05-08T03:17:27.530Z,100524
2017-05-08T03:18:27.001Z,100522
2017-05-08T03:19:27.365Z,100524
2017-05-08T03:20:27.176Z,100524
2017-05-08T03:21:27.207Z,100525
2017-05-08T03:22:27.864Z,100517
2017-05-08T03:23:27.853Z,100521
2017-05-08T03:24:27.999Z,100526
2017-05-08T03:25:29.063Z,100522
2017-05-08T03:26:27.517Z,100529
2017-05-08T03:27:28.154Z,100524
2017-05-08T03:28:28.296Z,100524
2017-05-08T03:29:27.733Z,100528
2017-05-08T03:30:28.297Z,100527
2017-05-08T03:31:28.066Z,100526
2017-05-08T03:32:27.921Z,100524
2017-05-08T03:33:28.477Z,100518
2017-05-08T03:34:28.522Z,100519
2017-05-08T03:35:28.531Z,100520
2017-05-08T03:36:28.601Z,100516
2017-05-08T03:37:28.923Z,100514
2017-05-08T03:38:28.638Z,100517
2017-05-08T03:39:28.258Z,100516
2017-05-08T03:40:28.805Z,100520
2017-05-08T03:41:28.925Z,100510
2017-05-08T03:42:29.514Z,100516
2017-05-08T03:43:29.269Z,100513
2017-05-08T03:44:28.997Z,100519
2017-05-08T03:45:28.480Z,100516
2017-05-08T03:46:29.072Z,100524
2017-05-08T03:47:29.138Z,100513
2017-05-08T03:48:29.173Z,100519
2017-05-08T03:49:29.524Z,100511
2017-05-08T03:50:28.825Z,100518
2017-05-08T03:51:29.360Z,100520
2017-05-08T03:52:28.889Z,100519
2017-05-08T03:53:28.966Z,100518
2017-05-08T03:54:29.478Z,100516
2017-05-08T03:55:29.810Z,100520
2017-05-08T03:56:30.107Z,100513
2017-05-08T03:57:29.030Z,100523
2017-05-08T03:58:29.623Z,100513
2017-05-08T03:59:29.110Z,100519
2017-05-08T04:00:29.147Z,100520
2017-05-08T04:01:29.419Z,100520
2017-05-08T04:02:29.182Z,100515
2017-05-08T04:03:29.793Z,100519
2017-05-08T04:04:29.299Z,100520
2017-05-08T04:05:29.335Z,100517
2017-05-08T04:06:29.433Z,100516
2017-05-08T04:07:30.340Z,100513
2017-05-08T04:08:29.571Z,100517
2017-05-08T04:09:29.659Z,100510
2017-05-08T04:10:30.243Z,100518
2017-05-08T04:11:30.255Z,100521
2017-05-08T04:12:30.264Z,100517
2017-05-08T04:13:30.701Z,100509
2017-05-08T04:14:30.426Z,100517
2017-05-08T04:15:30.529Z,100517
2017-05-08T04:16:29.984Z,100519
2017-05-08T04:17:30.069Z,100523
2017-05-08T04:18:30.686Z,100522
2017-05-08T04:19:30.506Z,100517
2017-05-08T04:20:30.255Z,100519
2017-05-08T04:21:30.325Z,100522
2017-05-08T04:22:30.868Z,100521
2017-05-08T04:23:30.938Z,100520
2017-05-08T04:24:30.935Z,100521
2017-05-08T04:25:30.768Z,100522
2017-05-08T04:26:30.962Z,100524
2017-05-08T04:27:30.433Z,100522
2017-05-08T04:28:30.519Z,100525
2017-05-08T04:29:31.140Z,100533
2017-05-08T04:30:31.197Z,100520
2017-05-08T04:31:31.078Z,100525
2017-05-08T04:32:31.375Z,100524
2017-05-08T04:33:31.474Z,100530
2017-05-08T04:34:31.504Z,100532
2017-05-08T04:35:31.049Z,100524
2017-05-08T04:36:31.584Z,100532
2017-05-08T04:37:31.465Z,100530
2017-05-08T04:38:31.661Z,100521
2017-05-08T04:39:31.208Z,100534
2017-05-08T04:40:31.836Z,100533
2017-05-08T04:41:31.909Z,100537
2017-05-08T04:42:31.981Z,100533
2017-05-08T04:43:31.757Z,100536
2017-05-08T04:44:31.526Z,100535
2017-05-08T04:45:32.076Z,100536
2017-05-08T04:46:32.086Z,100536
2017-05-08T04:47:32.131Z,100533
2017-05-08T04:48:32.117Z,100530
2017-05-08T04:49:32.514Z,100539
2017-05-08T04:50:32.221Z,100541
2017-05-08T04:51:32.919Z,100545
2017-05-08T04:52:31.798Z,100540
2017-05-08T04:53:32.409Z,100539
2017-05-08T04:54:32.606Z,100541
2017-05-08T04:55:32.855Z,100542
2017-05-08T04:56:32.056Z,100540
2017-05-08T04:57:32.759Z,100535
2017-05-08T04:58:33.282Z,100538
2017-05-08T04:59:32.170Z,100543
2017-05-08T05:00:32.774Z,100539
2017-05-08T05:01:32.583Z,100530
2017-05-08T05:02:32.936Z,100539
2017-05-08T05:03:32.981Z,100532
2017-05-08T05:04:32.406Z,100538
2017-05-08T05:05:32.447Z,100539
2017-05-08T05:06:32.603Z,100535
2017-05-08T05:07:32.941Z,100535
2017-05-08T05:08:32.623Z,100531
2017-05-08T05:09:33.193Z,100539
2017-05-08T05:10:32.689Z,100540
2017-05-08T05:11:32.702Z,100540
2017-05-08T05:12:33.358Z,100536
2017-05-08T05:13:41.347Z,100533
2017-05-08T05:14:33.451Z,100538
2017-05-08T05:15:33.386Z,100530
2017-05-08T05:16:33.480Z,100540
2017-05-08T05:17:33.517Z,100536
2017-05-08T05:18:33.746Z,100538
2017-05-08T05:19:33.318Z,100535
2017-05-08T05:20:34.843Z,100540
2017-05-08T05:21:33.751Z,100537
2017-05-08T05:22:33.258Z,100537
2017-05-08T05:23:33.377Z,100532
2017-05-08T05:24:34.001Z,100527
2017-05-08T05:25:34.384Z,100536
2017-05-08T05:26:36.095Z,100532
2017-05-08T05:27:33.688Z,100534
2017-05-08T05:28:33.766Z,100527
2017-05-08T05:29:33.827Z,100536
2017-05-08T05:30:33.914Z,100539
2017-05-08T05:31:34.887Z,100538
2017-05-08T05:32:34.671Z,100539
2017-05-08T05:33:34.828Z,100528
2017-05-08T05:34:34.158Z,100535
2017-05-08T05:35:34.233Z,100538
2017-05-08T05:36:34.351Z,100534
2017-05-08T05:37:35.253Z,100531
2017-05-08T05:38:34.442Z,100527
2017-05-08T05:39:35.081Z,100537
2017-05-08T05:40:35.214Z,100530
2017-05-08T05:41:35.178Z,100536
2017-05-08T05:42:35.381Z,100531
2017-05-08T05:43:34.965Z,100535
2017-05-08T05:44:34.697Z,100529
2017-05-08T05:45:34.800Z,100537
2017-05-08T05:46:35.339Z,100540
2017-05-08T05:47:34.890Z,100538
2017-05-08T05:48:35.538Z,100541
2017-05-08T05:49:35.830Z,100542
2017-05-08T05:50:35.582Z,100531
2017-05-08T05:51:35.579Z,100544
2017-05-08T05:52:35.086Z,100537
2017-05-08T05:53:35.180Z,100543
2017-05-08T05:54:35.245Z,100536
2017-05-08T05:55:36.103Z,100543
2017-05-08T05:56:35.919Z,100534
2017-05-08T05:57:35.993Z,100545
2017-05-08T05:58:35.519Z,100535
2017-05-08T05:59:35.583Z,100544
2017-05-08T06:00:36.243Z,100545
2017-05-08T06:01:36.534Z,100545
2017-05-08T06:03:35.742Z,100545
2017-05-08T06:04:36.232Z,100543
2017-05-08T06:05:38.317Z,100544
2017-05-08T06:06:36.382Z,100546
2017-05-08T06:07:36.756Z,100548
2017-05-08T06:08:37.808Z,100550
2017-05-08T06:09:37.144Z,100546
2017-05-08T06:10:37.303Z,100543
2017-05-08T06:11:36.810Z,100548
2017-05-08T06:12:37.316Z,100550
2017-05-08T06:13:36.500Z,100550
2017-05-08T06:14:36.765Z,100549
2017-05-08T06:15:37.453Z,100551
2017-05-08T06:16:36.785Z,100546
2017-05-08T06:17:37.092Z,100553
2017-05-08T06:18:38.569Z,100549
2017-05-08T06:19:38.647Z,100559
2017-05-08T06:20:37.094Z,100553
2017-05-08T06:21:36.671Z,100557
2017-05-08T06:22:36.604Z,100560
2017-05-08T06:23:36.733Z,100558
2017-05-08T06:24:36.769Z,100556
2017-05-08T06:25:37.633Z,100561
2017-05-08T06:26:38.144Z,100563
2017-05-08T06:27:38.199Z,100563
2017-05-08T06:28:38.908Z,100557
2017-05-08T06:29:38.929Z,100564
2017-05-08T06:30:38.348Z,100562
2017-05-08T06:31:37.961Z,100570
2017-05-08T06:32:37.699Z,100563
2017-05-08T06:33:38.454Z,100567
2017-05-08T06:34:37.770Z,100570
2017-05-08T06:35:39.244Z,100568
2017-05-08T06:36:38.861Z,100565
2017-05-08T06:37:38.321Z,100564
2017-05-08T06:38:38.651Z,100561
2017-05-08T06:39:38.075Z,100564
2017-05-08T06:40:38.859Z,100564
2017-05-08T06:41:41.235Z,100563
2017-05-08T06:42:38.517Z,100559
2017-05-08T06:43:39.312Z,100563
2017-05-08T06:44:38.603Z,100563
2017-05-08T06:45:39.006Z,100568
2017-05-08T06:46:38.385Z,100569
2017-05-08T06:47:37.993Z,100573
2017-05-08T06:48:37.951Z,100564
2017-05-08T06:49:39.937Z,100571
2017-05-08T06:50:40.690Z,100572
2017-05-08T06:51:38.739Z,100570
2017-05-08T06:52:39.404Z,100576
2017-05-08T06:53:39.406Z,100577
2017-05-08T06:54:39.058Z,100572
2017-05-08T06:55:38.747Z,100584
2017-05-08T06:56:40.087Z,100583
2017-05-08T06:57:42.058Z,100585
2017-05-08T06:58:43.456Z,100588
2017-05-08T06:59:39.205Z,100576
2017-05-08T07:00:38.810Z,100588
2017-05-08T07:01:41.093Z,100581
2017-05-08T07:02:38.839Z,100586
2017-05-08T07:03:38.895Z,100584
2017-05-08T07:04:38.877Z,100592
2017-05-08T07:05:40.162Z,100587
2017-05-08T07:06:39.690Z,100587
2017-05-08T07:07:42.146Z,100593
2017-05-08T07:08:44.852Z,100591
2017-05-08T07:11:45.424Z,100591
2017-05-08T07:12:41.094Z,100598
2017-05-08T07:13:42.792Z,100589
2017-05-08T07:14:39.985Z,100593
2017-05-08T07:15:41.198Z,100595
2017-05-08T07:16:40.775Z,100599
2017-05-08T07:17:40.097Z,100597
2017-05-08T07:18:39.632Z,100598
2017-05-08T07:19:40.124Z,100600
2017-05-08T07:20:40.450Z,100597
2017-05-08T07:21:40.278Z,100600
2017-05-08T07:22:39.794Z,100590
2017-05-08T07:23:40.309Z,100595
2017-05-08T07:24:40.703Z,100594
2017-05-08T07:25:41.149Z,100597
2017-05-08T07:26:40.717Z,100599
2017-05-08T07:27:40.100Z,100596
2017-05-08T07:28:42.728Z,100599
2017-05-08T07:29:41.320Z,100600
2017-05-08T07:30:41.741Z,100599
2017-05-08T07:31:40.316Z,100602
2017-05-08T07:32:41.664Z,100599
2017-05-08T07:33:40.407Z,100596
2017-05-08T07:34:40.991Z,100598
2017-05-08T07:35:41.648Z,100591
2017-05-08T07:36:41.339Z,100603
2017-05-08T07:37:41.147Z,100604
2017-05-08T07:38:41.203Z,100604
2017-05-08T07:39:41.111Z,100609
2017-05-08T07:40:41.947Z,100604
2017-05-08T07:41:42.582Z,100609
2017-05-08T07:42:42.524Z,100611
2017-05-08T07:43:41.431Z,100610
2017-05-08T07:44:41.441Z,100608
2017-05-08T07:45:41.636Z,100608
2017-05-08T07:46:40.959Z,100604
2017-05-08T07:47:42.122Z,100611
2017-05-08T07:48:42.377Z,100616
2017-05-08T07:49:41.132Z,100609
2017-05-08T07:50:41.243Z,100610
2017-05-08T07:51:42.984Z,100615
2017-05-08T07:52:41.861Z,100615
2017-05-08T07:53:42.978Z,100614
2017-05-08T07:54:44.441Z,100615
2017-05-08T07:55:45.421Z,100616
2017-05-08T07:57:42.058Z,100618
2017-05-08T07:58:42.124Z,100615
2017-05-08T07:59:41.541Z,100614
2017-05-08T08:00:41.902Z,100611
2017-05-08T08:01:41.662Z,100615
2017-05-08T08:02:41.620Z,100618
2017-05-08T08:03:46.244Z,100613
2017-05-08T08:04:44.175Z,100615
2017-05-08T08:05:43.679Z,100615
2017-05-08T08:06:42.883Z,100618
2017-05-08T08:07:41.913Z,100609
2017-05-08T08:08:43.112Z,100614
2017-05-08T08:14:44.358Z,100612
2017-05-08T08:15:44.093Z,100614
2017-05-08T08:16:42.588Z,100611
2017-05-08T08:17:46.561Z,100609
2017-05-08T08:18:44.858Z,100606
2017-05-08T08:19:45.004Z,100606
2017-05-08T08:20:49.983Z,100604
2017-05-08T08:21:45.256Z,100611
2017-05-08T08:22:45.568Z,100618
2017-05-08T08:23:43.623Z,100616
2017-05-08T08:24:44.729Z,100623
2017-05-08T08:25:45.565Z,100621
2017-05-08T08:26:45.467Z,100618
2017-05-08T08:27:46.071Z,100617
2017-05-08T08:28:47.173Z,100620
2017-05-08T08:29:46.607Z,100623
2017-05-08T08:30:43.680Z,100613
2017-05-08T08:31:44.958Z,100621
2017-05-08T08:32:44.950Z,100626
2017-05-08T08:33:43.237Z,100628
2017-05-08T08:34:44.075Z,100628
2017-05-08T08:35:44.231Z,100626
2017-05-08T08:36:44.669Z,100627
2017-05-08T08:37:44.569Z,100621
2017-05-08T08:38:44.166Z,100626
2017-05-08T08:39:45.030Z,100622
2017-05-08T08:40:45.138Z,100627
2017-05-08T08:41:45.441Z,100626
2017-05-08T08:42:47.486Z,100631
2017-05-08T08:43:46.758Z,100631
2017-05-08T08:44:44.349Z,100630
2017-05-08T08:46:45.943Z,100634
2017-05-08T08:47:45.861Z,100632
2017-05-08T08:48:45.553Z,100628
2017-05-08T08:49:44.567Z,100632
2017-05-08T08:50:45.517Z,100629
2017-05-08T08:51:46.042Z,100640
2017-05-08T08:52:46.062Z,100631
2017-05-08T08:53:50.189Z,100635
2017-05-08T08:54:45.747Z,100639
2017-05-08T08:55:46.301Z,100634
2017-05-08T08:56:48.851Z,100641
2017-05-08T08:57:46.711Z,100636
2017-05-08T08:58:49.400Z,100638
2017-05-08T08:59:48.216Z,100634
2017-05-08T09:00:47.716Z,100638
2017-05-08T09:01:47.260Z,100634
2017-05-08T09:02:46.412Z,100637
2017-05-08T09:03:47.092Z,100632
2017-05-08T09:04:51.086Z,100633
2017-05-08T09:05:47.388Z,100630
2017-05-08T09:06:46.849Z,100632
2017-05-08T09:07:45.661Z,100640
2017-05-08T09:08:50.050Z,100636
2017-05-08T09:09:48.446Z,100639
2017-05-08T09:10:48.730Z,100633
2017-05-08T09:11:46.345Z,100630
2017-05-08T09:12:47.844Z,100628
2017-05-08T09:13:46.825Z,100629
2017-05-08T09:14:48.922Z,100637
2017-05-08T09:15:52.466Z,100640
2017-05-08T09:16:48.777Z,100634
2017-05-08T09:17:51.944Z,100636
2017-05-08T09:18:49.116Z,100634
2017-05-08T09:20:47.236Z,100635
2017-05-08T09:21:51.211Z,100638
2017-05-08T09:22:50.797Z,100636
2017-05-08T09:23:53.181Z,100642
2017-05-08T09:24:47.970Z,100643
2017-05-08T09:25:48.916Z,100645
2017-05-08T09:26:47.223Z,100648
2017-05-08T09:27:52.168Z,100651
2017-05-08T09:28:48.050Z,100651
2017-05-08T09:29:47.279Z,100642
2017-05-08T09:30:47.867Z,100654
2017-05-08T09:31:49.697Z,100654
2017-05-08T09:32:47.217Z,100647
2017-05-08T09:33:47.063Z,100654
2017-05-08T09:34:48.198Z,100658
2017-05-08T09:35:47.090Z,100654
2017-05-08T09:36:48.502Z,100657
2017-05-08T09:37:48.431Z,100658
2017-05-08T09:38:51.100Z,100657
2017-05-08T09:39:47.546Z,100656
2017-05-08T09:40:49.441Z,100659
2017-05-08T09:41:48.869Z,100658
2017-05-08T09:42:48.922Z,100656
2017-05-08T09:43:48.214Z,100661
2017-05-08T09:44:48.456Z,100661
2017-05-08T09:45:49.781Z,100664
2017-05-08T09:46:48.357Z,100665
2017-05-08T09:47:47.967Z,100672
2017-05-08T09:48:50.121Z,100664
2017-05-08T09:49:49.836Z,100663
2017-05-08T09:51:49.819Z,100670
2017-05-08T09:52:50.475Z,100663
2017-05-08T09:53:51.691Z,100665
2017-05-08T09:54:49.677Z,100666
2017-05-08T09:55:47.625Z,100665
2017-05-08T09:56:50.433Z,100666
2017-05-08T09:57:51.973Z,100666
2017-05-08T09:58:50.581Z,100665
2017-05-08T10:00:49.884Z,100667
2017-05-08T10:05:50.185Z,100674
2017-05-08T10:06:55.001Z,100675
2017-05-08T10:07:49.533Z,100680
2017-05-08T10:08:50.274Z,100675
2017-05-08T10:09:51.138Z,100677
2017-05-08T10:10:50.927Z,100681
2017-05-08T10:11:49.051Z,100680
2017-05-08T10:12:49.132Z,100678
2017-05-08T10:13:49.167Z,100678
2017-05-08T10:14:53.147Z,100680
2017-05-08T10:15:49.905Z,100678
2017-05-08T10:16:51.998Z,100669
2017-05-08T10:17:49.412Z,100677
2017-05-08T10:18:50.072Z,100682
2017-05-08T10:19:50.856Z,100681
2017-05-08T10:20:48.932Z,100676
2017-05-08T10:21:50.755Z,100674
2017-05-08T10:22:49.078Z,100679
2017-05-08T10:23:50.791Z,100684
2017-05-08T10:24:51.013Z,100683
2017-05-08T10:25:52.345Z,100683
2017-05-08T10:26:54.714Z,100686
2017-05-08T10:27:51.271Z,100686
2017-05-08T10:28:53.379Z,100682
2017-05-08T10:34:55.426Z,100686
2017-05-08T10:35:54.641Z,100676
2017-05-08T10:36:52.712Z,100673
2017-05-08T10:37:53.434Z,100687
2017-05-08T10:38:52.288Z,100682
2017-05-08T10:39:53.427Z,100681
2017-05-08T10:40:53.454Z,100682
2017-05-08T10:41:50.536Z,100688
2017-05-08T10:42:50.657Z,100685
2017-05-08T10:43:50.176Z,100686
2017-05-08T10:44:50.722Z,100689
2017-05-08T10:45:53.391Z,100689
2017-05-08T10:46:52.207Z,100680
2017-05-08T10:47:52.557Z,100681
2017-05-08T10:48:50.884Z,100688
2017-05-08T10:49:50.949Z,100693
2017-05-08T10:50:51.656Z,100693
2017-05-08T10:51:51.455Z,100693
2017-05-08T10:52:52.262Z,100695
2017-05-08T10:53:52.223Z,100697
2017-05-08T10:54:55.160Z,100694
2017-05-08T10:55:51.867Z,100698
2017-05-08T10:56:53.341Z,100690
2017-05-08T10:57:54.541Z,100700
2017-05-08T10:58:52.360Z,100687
2017-05-08T10:59:51.541Z,100690
2017-05-08T11:00:53.385Z,100691
2017-05-08T11:01:50.930Z,100694
2017-05-08T11:02:50.982Z,100701
2017-05-08T11:03:57.317Z,100691
2017-05-08T11:04:51.702Z,100692
2017-05-08T11:05:53.479Z,100697
2017-05-08T11:06:51.894Z,100695
2017-05-08T11:07:52.981Z,100705
2017-05-08T11:08:52.454Z,100702
2017-05-08T11:09:53.147Z,100704
2017-05-08T11:10:53.473Z,100708
2017-05-08T11:11:52.125Z,100699
2017-05-08T11:12:53.439Z,100699
2017-05-08T11:13:52.267Z,100707
2017-05-08T11:14:53.017Z,100710
2017-05-08T11:15:53.688Z,100708
2017-05-08T11:16:54.126Z,100705
2017-05-08T11:17:53.681Z,100704
2017-05-08T11:18:53.206Z,100709
2017-05-08T11:19:52.596Z,100697
2017-05-08T11:20:54.071Z,100707
2017-05-08T11:21:52.916Z,100712
2017-05-08T11:22:53.303Z,100717
2017-05-08T11:23:52.863Z,100721
2017-05-08T11:24:54.214Z,100717
2017-05-08T11:25:53.595Z,100722
2017-05-08T11:26:53.196Z,100714
2017-05-08T11:27:56.548Z,100719
2017-05-08T11:28:57.696Z,100723
2017-05-08T11:29:53.644Z,100717
2017-05-08T11:30:53.749Z,100722
2017-05-08T11:31:55.127Z,100718
2017-05-08T11:32:53.242Z,100714
2017-05-08T11:33:52.659Z,100720
2017-05-08T11:34:52.835Z,100719
2017-05-08T11:35:53.291Z,100713
2017-05-08T11:36:54.082Z,100721
2017-05-08T11:37:54.112Z,100722
2017-05-08T11:38:54.266Z,100721
2017-05-08T11:39:54.269Z,100722
2017-05-08T11:40:53.047Z,100712
2017-05-08T11:41:54.491Z,100719
2017-05-08T11:42:55.658Z,100721
2017-05-08T11:43:53.755Z,100719
2017-05-08T11:44:55.123Z,100722
2017-05-08T11:45:54.455Z,100712
2017-05-08T11:46:54.551Z,100721
2017-05-08T11:47:56.278Z,100717
2017-05-08T11:48:57.178Z,100716
2017-05-08T11:49:55.766Z,100724
2017-05-08T11:50:55.053Z,100719
2017-05-08T11:51:54.182Z,100723
2017-05-08T11:52:55.653Z,100722
2017-05-08T11:53:54.019Z,100720
2017-05-08T11:54:55.037Z,100713
2017-05-08T11:55:53.886Z,100720
2017-05-08T11:56:54.385Z,100722
2017-05-08T11:57:56.297Z,100722
2017-05-08T11:58:55.103Z,100726
2017-05-08T11:59:54.478Z,100717
2017-05-08T12:00:55.118Z,100716
2017-05-08T12:01:55.178Z,100719
2017-05-08T12:02:57.483Z,100722
2017-05-08T12:03:55.384Z,100724
2017-05-08T12:04:54.242Z,100727
2017-05-08T12:05:56.921Z,100727
2017-05-08T12:06:55.625Z,100729
2017-05-08T12:07:55.574Z,100724
2017-05-08T12:08:55.201Z,100721
2017-05-08T12:09:55.853Z,100725
2017-05-08T12:10:55.868Z,100729
2017-05-08T12:11:54.512Z,100723
2017-05-08T12:12:55.143Z,100727
2017-05-08T12:13:56.571Z,100727
2017-05-08T12:14:58.585Z,100726
2017-05-08T12:15:58.108Z,100726
2017-05-08T12:16:55.454Z,100725
2017-05-08T12:17:56.130Z,100706
2017-05-08T12:18:57.560Z,100725
2017-05-08T12:19:57.221Z,100728
2017-05-08T12:20:57.598Z,100730
2017-05-08T12:21:56.244Z,100731
2017-05-08T12:22:57.736Z,100726
2017-05-08T12:23:56.339Z,100720
2017-05-08T12:24:55.104Z,100725
2017-05-08T12:25:57.004Z,100719
2017-05-08T12:26:57.105Z,100724
2017-05-08T12:27:57.639Z,100723
2017-05-08T12:28:57.206Z,100722
2017-05-08T12:29:56.664Z,100726
2017-05-08T12:30:57.821Z,100721
2017-05-08T12:31:56.728Z,100721
2017-05-08T12:33:02.414Z,100721
2017-05-08T12:33:58.234Z,100725
2017-05-08T12:34:57.715Z,100727
2017-05-08T12:35:57.041Z,100729
2017-05-08T12:36:57.242Z,100733
2017-05-08T12:37:57.476Z,100731
2017-05-08T12:38:57.745Z,100727
2017-05-08T12:39:59.137Z,100731
2017-05-08T12:40:57.173Z,100729
2017-05-08T12:41:58.659Z,100729
2017-05-08T12:42:58.654Z,100724
2017-05-08T12:43:56.896Z,100726
2017-05-08T12:44:57.398Z,100726
2017-05-08T12:45:57.575Z,100729
2017-05-08T12:46:58.681Z,100723
2017-05-08T12:47:56.845Z,100728
2017-05-08T12:48:58.569Z,100727
2017-05-08T12:49:58.726Z,100720
2017-05-08T12:50:58.730Z,100728